createdAt,value
2022-12-25T00:02:18.368Z,75.21
2022-12-25T00:04:45.105Z,75.41
2022-12-25T00:07:11.818Z,75.58
2022-12-25T00:09:38.582Z,74.89
2022-12-25T00:12:05.330Z,75.25
2022-12-25T00:14:32.007Z,75.18
2022-12-25T00:16:58.733Z,74.52
2022-12-25T00:19:25.616Z,74.91
2022-12-25T00:21:52.360Z,74.92
2022-12-25T00:24:19.027Z,75.51
2022-12-25T00:26:45.684Z,75.23
2022-12-25T00:29:12.558Z,73.95
2022-12-25T00:31:39.260Z,73.88
2022-12-25T00:34:05.925Z,74.78
2022-12-25T00:36:36.350Z,74.18
2022-12-25T00:39:07.926Z,74.27
2022-12-25T00:41:34.595Z,74.99
2022-12-25T00:44:01.222Z,75.30
2022-12-25T00:46:27.970Z,74.97
2022-12-25T00:48:54.641Z,75.77
2022-12-25T00:51:21.339Z,75.29
2022-12-25T00:53:47.979Z,74.65
2022-12-25T00:56:14.625Z,74.28
2022-12-25T00:58:41.282Z,74.96
2022-12-25T01:01:08.774Z,74.70
2022-12-25T01:03:35.424Z,74.71
2022-12-25T01:06:03.963Z,75.34
2022-12-25T01:08:32.114Z,74.72
2022-12-25T01:11:00.599Z,75.39
2022-12-25T01:13:27.772Z,75.21
2022-12-25T01:15:54.609Z,74.89
2022-12-25T01:18:22.173Z,74.44
2022-12-25T01:20:48.871Z,74.64
2022-12-25T01:23:15.588Z,75.20
2022-12-25T01:25:42.253Z,74.85
2022-12-25T01:28:08.897Z,75.45
2022-12-25T01:30:35.609Z,75.49
2022-12-25T01:33:02.288Z,75.43
2022-12-25T01:35:28.965Z,75.43
2022-12-25T01:37:55.628Z,75.70
2022-12-25T01:40:22.289Z,76.23
2022-12-25T01:42:48.930Z,75.34
2022-12-25T01:45:38.760Z,76.00
2022-12-25T01:48:08.030Z,75.44
2022-12-25T01:50:34.882Z,75.64
2022-12-25T01:53:01.533Z,75.71
2022-12-25T01:55:28.178Z,74.39
2022-12-25T01:57:54.860Z,75.81
2022-12-25T02:00:21.489Z,74.83
2022-12-25T02:02:48.196Z,75.23
2022-12-25T02:05:22.841Z,75.31
2022-12-25T02:07:49.549Z,74.86
2022-12-25T02:10:16.372Z,74.76
2022-12-25T02:12:42.999Z,74.75
2022-12-25T02:15:13.488Z,75.37
2022-12-25T02:18:05.032Z,74.53
2022-12-25T02:20:47.254Z,75.06
2022-12-25T02:23:16.626Z,74.87
2022-12-25T02:26:01.405Z,74.61
2022-12-25T02:28:28.247Z,73.37
2022-12-25T02:31:25.637Z,73.66
2022-12-25T02:34:21.586Z,73.77
2022-12-25T02:37:16.612Z,74.53
2022-12-25T02:40:07.914Z,73.89
2022-12-25T02:42:55.855Z,74.47
2022-12-25T02:45:40.617Z,74.31
2022-12-25T02:48:07.297Z,74.49
2022-12-25T02:50:33.939Z,73.88
2022-12-25T02:53:00.631Z,74.25
2022-12-25T02:55:30.489Z,74.64
2022-12-25T02:57:58.030Z,75.00
2022-12-25T03:00:24.645Z,75.67
2022-12-25T03:02:51.656Z,74.80
2022-12-25T03:05:20.622Z,74.42
2022-12-25T03:07:47.297Z,74.87
2022-12-25T03:10:14.052Z,74.47
2022-12-25T03:12:52.307Z,74.84
2022-12-25T03:15:19.368Z,75.65
2022-12-25T03:17:46.046Z,74.60
2022-12-25T03:20:12.688Z,74.79
2022-12-25T03:22:39.339Z,74.91
2022-12-25T03:25:06.434Z,74.92
2022-12-25T03:27:33.532Z,75.30
2022-12-25T03:30:00.215Z,74.21
2022-12-25T03:33:17.993Z,75.25
2022-12-25T03:36:16.618Z,74.61
2022-12-25T03:39:05.900Z,74.55
2022-12-25T03:41:43.399Z,74.48
2022-12-25T03:44:25.213Z,75.07
2022-12-25T03:46:55.369Z,74.53
2022-12-25T03:49:26.564Z,74.49
2022-12-25T03:51:53.540Z,74.96
2022-12-25T03:54:21.187Z,74.63
2022-12-25T03:56:47.821Z,75.22
2022-12-25T03:59:23.210Z,74.89
2022-12-25T04:01:51.032Z,75.02
2022-12-25T04:04:17.723Z,75.38
2022-12-25T04:06:44.741Z,75.04
2022-12-25T04:09:11.384Z,75.32
2022-12-25T04:11:38.020Z,74.45
2022-12-25T04:14:04.693Z,75.30
2022-12-25T04:16:31.342Z,75.58
2022-12-25T04:18:57.972Z,74.82
2022-12-25T04:21:24.615Z,75.67
2022-12-25T04:23:51.237Z,75.74
2022-12-25T04:26:17.884Z,75.56
2022-12-25T04:28:44.565Z,75.46
2022-12-25T04:31:11.271Z,74.78
2022-12-25T04:33:37.969Z,75.50
2022-12-25T04:36:04.813Z,75.44
2022-12-25T04:38:31.486Z,74.77
2022-12-25T04:40:58.767Z,74.37
2022-12-25T04:43:25.519Z,73.79
2022-12-25T04:45:53.806Z,74.43
2022-12-25T04:48:20.552Z,73.89
2022-12-25T04:50:47.232Z,73.36
2022-12-25T04:53:13.924Z,72.63
2022-12-25T04:55:40.569Z,72.36
2022-12-25T04:58:07.211Z,73.44
2022-12-25T05:00:33.843Z,73.49
2022-12-25T05:03:00.738Z,72.60
2022-12-25T05:05:27.511Z,73.32
2022-12-25T05:07:54.170Z,72.64
2022-12-25T05:10:20.818Z,72.69
2022-12-25T05:12:47.466Z,72.40
2022-12-25T05:15:14.123Z,72.18
2022-12-25T05:17:40.762Z,73.07
2022-12-25T05:20:07.751Z,72.29
2022-12-25T05:22:34.410Z,72.47
2022-12-25T05:25:01.082Z,72.41
2022-12-25T05:27:27.749Z,72.75
2022-12-25T05:29:54.366Z,73.21
2022-12-25T05:32:21.003Z,73.14
2022-12-25T05:34:47.633Z,73.67
2022-12-25T05:37:14.283Z,72.69
2022-12-25T05:39:40.915Z,73.14
2022-12-25T05:42:07.600Z,72.85
2022-12-25T05:44:34.223Z,72.77
2022-12-25T05:47:01.056Z,72.65
2022-12-25T05:49:27.731Z,73.15
2022-12-25T05:51:55.511Z,73.76
2022-12-25T05:54:22.177Z,73.50
2022-12-25T05:56:48.789Z,74.25
2022-12-25T05:59:15.414Z,73.95
2022-12-25T06:01:42.208Z,74.38
2022-12-25T06:04:12.708Z,74.41
2022-12-25T06:06:40.088Z,74.09
2022-12-25T06:09:06.777Z,74.75
2022-12-25T06:11:33.435Z,74.04
2022-12-25T06:14:00.131Z,73.88
2022-12-25T06:16:26.841Z,73.82
2022-12-25T06:18:53.536Z,74.29
2022-12-25T06:21:20.189Z,73.61
2022-12-25T06:23:46.980Z,73.68
2022-12-25T06:26:15.333Z,73.53
2022-12-25T06:28:41.987Z,74.39
2022-12-25T06:31:14.003Z,74.26
2022-12-25T06:33:40.713Z,73.94
2022-12-25T06:36:09.006Z,73.52
2022-12-25T06:38:36.143Z,74.04
2022-12-25T06:41:04.880Z,73.67
2022-12-25T06:43:31.512Z,73.64
2022-12-25T06:46:02.471Z,74.14
2022-12-25T06:48:29.152Z,74.70
2022-12-25T06:50:55.781Z,74.11
2022-12-25T06:53:22.465Z,74.57
2022-12-25T06:55:49.123Z,74.96
2022-12-25T06:58:15.776Z,74.08
2022-12-25T07:00:42.452Z,74.95
2022-12-25T07:03:09.189Z,74.32
2022-12-25T07:05:35.925Z,73.37
2022-12-25T07:08:02.579Z,72.86
2022-12-25T07:10:29.264Z,74.44
2022-12-25T07:12:55.921Z,73.77
2022-12-25T07:15:22.585Z,73.58
2022-12-25T07:17:49.232Z,74.00
2022-12-25T07:20:16.079Z,74.38
2022-12-25T07:22:42.827Z,74.54
2022-12-25T07:25:09.518Z,73.70
2022-12-25T07:27:36.299Z,74.29
2022-12-25T07:30:02.951Z,73.96
2022-12-25T07:32:32.497Z,73.80
2022-12-25T07:34:59.147Z,74.51
2022-12-25T07:37:25.808Z,73.97
2022-12-25T07:39:52.480Z,74.39
2022-12-25T07:42:24.796Z,74.65
2022-12-25T07:44:51.942Z,74.53
2022-12-25T07:47:18.580Z,74.16
2022-12-25T07:49:45.217Z,73.65
2022-12-25T07:52:11.855Z,74.37
2022-12-25T07:54:38.512Z,73.53
2022-12-25T07:57:05.182Z,73.84
2022-12-25T07:59:31.851Z,74.09
2022-12-25T08:01:58.780Z,74.00
2022-12-25T08:04:25.576Z,73.53
2022-12-25T08:06:52.213Z,74.39
2022-12-25T08:09:18.958Z,73.53
2022-12-25T08:11:45.956Z,74.48
2022-12-25T08:14:12.617Z,72.97
2022-12-25T08:16:39.353Z,72.23
2022-12-25T08:19:05.972Z,71.55
2022-12-25T08:21:33.674Z,72.25
2022-12-25T08:24:00.337Z,72.37
2022-12-25T08:26:27.072Z,71.71
2022-12-25T08:28:53.715Z,72.04
2022-12-25T08:31:22.333Z,71.04
2022-12-25T08:33:49.536Z,70.77
2022-12-25T08:36:16.232Z,71.76
2022-12-25T08:38:42.920Z,71.90
2022-12-25T08:41:10.193Z,71.85
2022-12-25T08:43:36.846Z,72.31
2022-12-25T08:46:04.429Z,72.45
2022-12-25T08:48:31.253Z,72.63
2022-12-25T08:50:58.425Z,72.23
2022-12-25T08:53:25.177Z,72.19
2022-12-25T08:56:01.542Z,71.31
2022-12-25T08:58:28.253Z,71.63
2022-12-25T09:00:54.974Z,72.03
2022-12-25T09:03:22.172Z,71.38
2022-12-25T09:05:49.163Z,68.86
2022-12-25T09:08:16.863Z,66.78
2022-12-25T09:10:44.563Z,66.72
2022-12-25T09:13:11.223Z,67.25
2022-12-25T09:15:38.630Z,65.22
2022-12-25T09:18:05.681Z,65.73
2022-12-25T09:20:32.397Z,66.30
2022-12-25T09:23:08.525Z,65.77
2022-12-25T09:25:38.441Z,67.03
2022-12-25T09:28:05.109Z,66.52
2022-12-25T09:30:31.765Z,66.36
2022-12-25T09:32:58.479Z,67.22
2022-12-25T09:35:25.200Z,66.37
2022-12-25T09:37:51.801Z,65.43
2022-12-25T09:40:19.276Z,66.01
2022-12-25T09:42:45.908Z,63.58
2022-12-25T09:45:15.439Z,64.73
2022-12-25T09:47:42.421Z,63.11
2022-12-25T09:50:44.552Z,63.48
2022-12-25T09:53:15.954Z,63.68
2022-12-25T09:56:08.490Z,64.36
2022-12-25T09:58:35.117Z,64.54
2022-12-25T10:01:07.912Z,64.94
2022-12-25T10:03:43.762Z,65.27
2022-12-25T10:06:36.314Z,65.07
2022-12-25T10:09:08.508Z,65.22
2022-12-25T10:11:50.313Z,65.25
2022-12-25T10:15:05.234Z,65.58
2022-12-25T10:18:15.255Z,65.61
2022-12-25T10:20:54.641Z,65.71
2022-12-25T10:23:27.173Z,65.27
2022-12-25T10:25:53.948Z,64.25
2022-12-25T10:28:28.383Z,64.67
2022-12-25T10:30:55.782Z,64.76
2022-12-25T10:33:22.631Z,64.28
2022-12-25T10:35:49.290Z,64.72
2022-12-25T10:38:17.627Z,65.16
2022-12-25T10:41:13.438Z,65.36
2022-12-25T10:43:50.390Z,65.29
2022-12-25T10:46:17.155Z,65.29
2022-12-25T10:48:54.522Z,65.05
2022-12-25T10:51:32.840Z,64.44
2022-12-25T10:53:59.589Z,64.71
2022-12-25T10:56:26.253Z,64.68
2022-12-25T10:59:04.614Z,65.82
2022-12-25T11:01:31.328Z,65.76
2022-12-25T11:03:58.067Z,65.18
2022-12-25T11:06:26.616Z,65.37
2022-12-25T11:08:54.866Z,65.58
2022-12-25T11:11:21.637Z,64.97
2022-12-25T11:13:49.833Z,64.21
2022-12-25T11:16:32.972Z,64.68
2022-12-25T11:18:59.759Z,65.08
2022-12-25T11:21:30.509Z,65.15
2022-12-25T11:24:03.584Z,65.63
2022-12-25T11:26:50.458Z,66.29
2022-12-25T11:29:25.962Z,66.66
2022-12-25T11:31:52.719Z,66.51
2022-12-25T11:34:34.455Z,66.88
2022-12-25T11:37:01.401Z,65.62
2022-12-25T11:39:46.230Z,65.49
2022-12-25T11:42:37.737Z,65.99
2022-12-25T11:45:07.759Z,66.06
2022-12-25T11:47:37.453Z,66.16
2022-12-25T11:50:27.465Z,66.35
2022-12-25T11:52:54.142Z,65.80
2022-12-25T11:55:44.597Z,65.23
2022-12-25T11:58:20.716Z,65.92
2022-12-25T12:00:47.937Z,66.44
2022-12-25T12:03:18.374Z,66.93
2022-12-25T12:05:50.821Z,65.98
2022-12-25T12:08:17.634Z,66.47
2022-12-25T12:11:08.670Z,67.01
2022-12-25T12:13:40.435Z,66.22
2022-12-25T12:16:07.119Z,66.33
2022-12-25T12:18:33.912Z,66.31
2022-12-25T12:21:21.280Z,65.66
2022-12-25T12:23:52.270Z,66.24
2022-12-25T12:26:26.132Z,66.32
2022-12-25T12:28:54.450Z,65.74
2022-12-25T12:31:21.104Z,64.98
2022-12-25T12:33:49.329Z,65.12
2022-12-25T12:36:16.006Z,64.09
2022-12-25T12:38:43.464Z,64.74
2022-12-25T12:41:10.191Z,65.30
2022-12-25T12:43:56.983Z,65.26
2022-12-25T12:46:30.584Z,64.80
2022-12-25T12:49:24.000Z,65.03
2022-12-25T12:51:50.898Z,64.33
2022-12-25T12:54:22.814Z,65.09
2022-12-25T12:57:02.416Z,65.59
2022-12-25T12:59:34.779Z,64.57
2022-12-25T13:02:14.735Z,65.66
2022-12-25T13:04:52.224Z,64.16
2022-12-25T13:07:34.763Z,65.44
2022-12-25T13:10:24.855Z,65.11
2022-12-25T13:12:53.532Z,65.69
2022-12-25T13:15:20.212Z,65.58
2022-12-25T13:17:46.928Z,64.96
2022-12-25T13:20:24.897Z,64.75
2022-12-25T13:22:53.037Z,63.55
2022-12-25T13:25:21.398Z,62.61
2022-12-25T13:27:54.966Z,61.80
2022-12-25T13:30:22.056Z,61.66
2022-12-25T13:32:48.707Z,62.79
2022-12-25T13:35:15.632Z,64.13
2022-12-25T13:37:42.460Z,64.47
2022-12-25T13:40:23.184Z,65.01
2022-12-25T13:42:50.694Z,63.64
2022-12-25T13:45:24.813Z,65.37
2022-12-25T13:47:55.207Z,64.73
2022-12-25T13:50:25.405Z,64.42
2022-12-25T13:52:52.331Z,64.71
2022-12-25T13:55:21.980Z,65.24
2022-12-25T13:57:56.169Z,65.29
2022-12-25T14:00:28.146Z,65.37
2022-12-25T14:02:54.958Z,65.81
2022-12-25T14:05:32.402Z,66.49
2022-12-25T14:08:12.602Z,66.65
2022-12-25T14:10:48.961Z,66.49
2022-12-25T14:13:15.618Z,67.43
2022-12-25T14:15:42.292Z,67.35
2022-12-25T14:18:18.871Z,67.52
2022-12-25T14:21:05.496Z,67.62
2022-12-25T14:23:46.145Z,68.44
2022-12-25T14:26:22.639Z,68.75
2022-12-25T14:28:51.275Z,68.47
2022-12-25T14:31:18.143Z,69.04
2022-12-25T14:33:44.825Z,68.87
2022-12-25T14:36:12.031Z,69.44
2022-12-25T14:38:38.691Z,69.40
2022-12-25T14:41:26.298Z,69.64
2022-12-25T14:43:54.019Z,69.80
2022-12-25T14:46:28.301Z,69.78
2022-12-25T14:49:24.139Z,69.52
2022-12-25T14:51:51.065Z,69.95
2022-12-25T14:54:19.695Z,70.08
2022-12-25T14:56:51.532Z,69.78
2022-12-25T14:59:20.718Z,70.67
2022-12-25T15:01:58.861Z,70.34
2022-12-25T15:04:25.631Z,69.94
2022-12-25T15:07:02.954Z,69.48
2022-12-25T15:09:29.747Z,69.63
2022-12-25T15:11:56.411Z,69.73
2022-12-25T15:14:23.668Z,69.72
2022-12-25T15:17:00.312Z,70.53
2022-12-25T15:19:34.755Z,70.38
2022-12-25T15:22:03.863Z,70.08
2022-12-25T15:24:30.514Z,70.11
2022-12-25T15:26:57.141Z,70.75
2022-12-25T15:29:52.106Z,71.04
2022-12-25T15:32:22.243Z,71.15
2022-12-25T15:34:49.121Z,71.46
2022-12-25T15:37:16.444Z,71.35
2022-12-25T15:39:43.184Z,71.88
2022-12-25T15:42:13.812Z,71.43
2022-12-25T15:44:40.748Z,71.85
2022-12-25T15:47:09.573Z,72.52
2022-12-25T15:49:36.309Z,72.15
2022-12-25T15:52:02.940Z,72.59
2022-12-25T15:54:30.478Z,72.22
2022-12-25T15:56:58.223Z,72.05
2022-12-25T15:59:24.882Z,72.21
2022-12-25T16:01:56.170Z,71.85
2022-12-25T16:04:25.020Z,72.41
2022-12-25T16:06:52.045Z,73.22
2022-12-25T16:09:19.019Z,72.30
2022-12-25T16:11:45.678Z,72.54
2022-12-25T16:14:12.567Z,73.56
2022-12-25T16:16:39.340Z,73.25
2022-12-25T16:19:06.203Z,73.08
2022-12-25T16:21:43.786Z,73.45
2022-12-25T16:24:10.505Z,73.31
2022-12-25T16:26:37.161Z,74.10
2022-12-25T16:29:07.320Z,73.95
2022-12-25T16:31:36.639Z,73.48
2022-12-25T16:34:03.849Z,73.46
2022-12-25T16:36:32.025Z,73.32
2022-12-25T16:38:58.684Z,72.71
2022-12-25T16:41:25.621Z,73.54
2022-12-25T16:43:54.314Z,73.44
2022-12-25T16:46:26.368Z,73.30
2022-12-25T16:48:54.704Z,73.24
2022-12-25T16:51:25.471Z,73.35
2022-12-25T16:53:55.995Z,73.97
2022-12-25T16:56:27.051Z,74.66
2022-12-25T16:58:54.828Z,74.43
2022-12-25T17:01:24.163Z,74.20
2022-12-25T17:03:54.433Z,74.25
2022-12-25T17:06:30.541Z,73.31
2022-12-25T17:09:11.577Z,74.10
2022-12-25T17:11:38.472Z,74.33
2022-12-25T17:14:40.719Z,73.64
2022-12-25T17:22:42.837Z,74.00
2022-12-25T17:25:11.006Z,72.71
2022-12-25T17:27:50.920Z,73.95
2022-12-25T17:30:24.645Z,74.15
2022-12-25T17:32:52.000Z,74.13
2022-12-25T17:35:19.003Z,73.07
2022-12-25T17:40:46.381Z,72.10
2022-12-25T17:45:53.524Z,73.53
2022-12-25T17:48:20.193Z,73.52
2022-12-25T17:50:48.598Z,73.74
2022-12-25T17:53:23.162Z,74.29
2022-12-25T17:55:56.554Z,74.22
2022-12-25T17:58:23.394Z,73.68
2022-12-25T18:00:50.357Z,73.56
2022-12-25T18:03:17.542Z,73.74
2022-12-25T18:06:04.934Z,73.22
2022-12-25T18:11:14.065Z,72.61
2022-12-25T18:14:04.582Z,72.82
2022-12-25T18:19:16.855Z,74.13
2022-12-25T18:22:06.134Z,74.63
2022-12-25T18:24:33.102Z,74.86
2022-12-25T18:27:04.132Z,74.38
2022-12-25T18:29:51.227Z,74.52
2022-12-25T18:37:41.980Z,73.81
2022-12-25T18:40:14.441Z,74.85
2022-12-25T18:45:32.649Z,74.76
2022-12-25T18:47:59.354Z,75.42
2022-12-25T18:50:26.694Z,74.58
2022-12-25T18:52:57.276Z,75.05
2022-12-25T18:55:26.336Z,73.50
2022-12-25T18:58:16.045Z,74.06
2022-12-25T19:00:46.057Z,74.19
2022-12-25T19:03:15.449Z,73.74
2022-12-25T19:05:49.833Z,73.80
2022-12-25T19:08:16.895Z,73.40
2022-12-25T19:10:44.207Z,74.03
2022-12-25T19:13:11.035Z,73.85
2022-12-25T19:15:41.935Z,73.42
2022-12-25T19:18:08.652Z,73.21
2022-12-25T19:20:38.665Z,73.59
2022-12-25T19:23:05.357Z,73.68
2022-12-25T19:25:32.038Z,73.74
2022-12-25T19:27:58.708Z,73.50
2022-12-25T19:30:25.381Z,73.53
2022-12-25T19:32:52.456Z,74.38
2022-12-25T19:35:20.055Z,73.80
2022-12-25T19:37:47.689Z,73.05
2022-12-25T19:40:15.283Z,73.17
2022-12-25T19:42:42.884Z,73.18
2022-12-25T19:45:10.467Z,72.03
2022-12-25T19:47:38.056Z,72.80
2022-12-25T19:50:05.060Z,72.71
2022-12-25T19:52:31.737Z,73.05
2022-12-25T19:54:58.389Z,73.15
2022-12-25T19:57:25.050Z,73.27
2022-12-25T19:59:51.739Z,73.58
2022-12-25T20:02:18.511Z,72.65
2022-12-25T20:04:45.280Z,72.41
2022-12-25T20:07:12.854Z,71.48
2022-12-25T20:09:39.521Z,71.75
2022-12-25T20:12:06.223Z,71.24
2022-12-25T20:14:32.850Z,71.71
2022-12-25T20:16:59.601Z,72.43
2022-12-25T20:19:26.293Z,72.18
2022-12-25T20:21:54.060Z,72.15
2022-12-25T20:24:20.739Z,72.42
2022-12-25T20:26:48.269Z,72.71
2022-12-25T20:29:15.810Z,72.66
2022-12-25T20:31:42.503Z,72.69
2022-12-25T20:34:09.333Z,73.41
2022-12-25T20:36:37.758Z,73.13
2022-12-25T20:39:06.176Z,73.75
2022-12-25T20:41:32.885Z,73.64
2022-12-25T20:43:59.996Z,73.79
2022-12-25T20:46:26.931Z,73.59
2022-12-25T20:48:53.662Z,73.34
2022-12-25T20:51:22.272Z,72.25
2022-12-25T20:53:48.937Z,72.84
2022-12-25T20:56:16.940Z,72.99
2022-12-25T20:58:43.673Z,73.09
2022-12-25T21:01:12.186Z,73.31
2022-12-25T21:03:39.005Z,73.82
2022-12-25T21:06:06.748Z,74.39
2022-12-25T21:08:34.462Z,74.99
2022-12-25T21:11:01.170Z,74.39
2022-12-25T21:13:29.643Z,74.72
2022-12-25T21:15:57.483Z,74.45
2022-12-25T21:18:26.064Z,74.34
2022-12-25T21:20:57.711Z,73.13
2022-12-25T21:23:25.313Z,73.59
2022-12-25T21:25:52.015Z,73.68
2022-12-25T21:28:20.929Z,73.15
2022-12-25T21:30:48.183Z,73.72
2022-12-25T21:33:17.290Z,73.16
2022-12-25T21:35:45.308Z,74.09
2022-12-25T21:38:12.899Z,73.67
2022-12-25T21:40:40.488Z,74.22
2022-12-25T21:43:07.146Z,73.68
2022-12-25T21:45:34.209Z,74.01
2022-12-25T21:48:03.535Z,74.50
2022-12-25T21:50:37.462Z,73.88
2022-12-25T21:53:05.926Z,74.52
2022-12-25T21:55:32.571Z,73.55
2022-12-25T21:57:59.212Z,74.04
2022-12-25T22:00:25.871Z,73.09
2022-12-25T22:02:52.604Z,73.40
2022-12-25T22:05:19.341Z,73.39
2022-12-25T22:07:45.971Z,73.04
2022-12-25T22:10:12.613Z,73.14
2022-12-25T22:12:39.304Z,74.12
2022-12-25T22:15:07.259Z,74.08
2022-12-25T22:17:34.704Z,74.24
2022-12-25T22:20:01.339Z,74.60
2022-12-25T22:22:29.257Z,73.69
2022-12-25T22:24:58.048Z,74.52
2022-12-25T22:27:24.852Z,74.73
2022-12-25T22:29:51.569Z,74.44
2022-12-25T22:32:18.249Z,74.27
2022-12-25T22:34:44.933Z,75.01
2022-12-25T22:37:15.089Z,74.28
2022-12-25T22:39:41.739Z,74.52
2022-12-25T22:42:08.462Z,75.02
2022-12-25T22:44:35.148Z,74.96
2022-12-25T22:47:01.907Z,74.55
2022-12-25T22:49:28.649Z,74.43
2022-12-25T22:51:55.298Z,74.58
2022-12-25T22:54:22.227Z,74.31
2022-12-25T22:56:50.194Z,74.41
2022-12-25T22:59:17.703Z,74.03
2022-12-25T23:01:44.567Z,73.56
2022-12-25T23:04:11.645Z,74.36
2022-12-25T23:06:38.904Z,73.66
2022-12-25T23:09:06.093Z,74.33
2022-12-25T23:11:32.758Z,73.65
2022-12-25T23:13:59.407Z,73.67
2022-12-25T23:16:26.166Z,73.23
2022-12-25T23:18:52.984Z,74.13
2022-12-25T23:21:19.619Z,72.13
2022-12-25T23:23:46.279Z,73.01
2022-12-25T23:26:15.565Z,72.84
2022-12-25T23:28:42.809Z,72.37
2022-12-25T23:31:09.552Z,73.00
2022-12-25T23:33:36.269Z,72.84
2022-12-25T23:36:03.004Z,72.68
2022-12-25T23:38:29.692Z,72.85
2022-12-25T23:40:56.317Z,73.02
2022-12-25T23:43:22.960Z,73.10
2022-12-25T23:45:49.635Z,72.76
2022-12-25T23:48:16.311Z,72.92
2022-12-25T23:50:42.975Z,71.74
2022-12-25T23:53:10.547Z,72.17
2022-12-25T23:55:37.249Z,72.34
2022-12-25T23:58:04.005Z,72.58
